createdAt,value
2022-12-31T00:01:46.253Z,99587.09
2022-12-31T00:04:14.228Z,99559.72
2022-12-31T00:06:42.004Z,99522.63
2022-12-31T00:09:11.424Z,99567.81
2022-12-31T00:11:40.649Z,99561.63
2022-12-31T00:14:08.667Z,99538.41
2022-12-31T00:16:38.634Z,99541.75
2022-12-31T00:19:07.946Z,99522.47
2022-12-31T00:21:36.666Z,99514.00
2022-12-31T00:24:05.894Z,99518.69
2022-12-31T00:26:35.711Z,99491.81
2022-12-31T00:29:06.119Z,99480.72
2022-12-31T00:31:34.651Z,99478.94
2022-12-31T00:34:03.129Z,99450.38
2022-12-31T00:36:32.910Z,99465.81
2022-12-31T00:39:02.456Z,99470.69
2022-12-31T00:41:30.646Z,99436.47
2022-12-31T00:43:58.888Z,99452.94
2022-12-31T00:46:28.409Z,99475.19
2022-12-31T00:48:56.366Z,99479.94
2022-12-31T00:51:27.490Z,99491.09
2022-12-31T00:53:55.905Z,99494.41
2022-12-31T00:56:25.359Z,99490.66
2022-12-31T00:58:53.573Z,99458.09
2022-12-31T01:01:24.131Z,99465.84
2022-12-31T01:03:55.608Z,99467.88
2022-12-31T01:06:24.078Z,99463.63
2022-12-31T01:08:53.187Z,99468.56
2022-12-31T01:11:22.506Z,99461.81
2022-12-31T01:13:52.844Z,99471.75
2022-12-31T01:16:22.496Z,99451.94
2022-12-31T01:18:50.745Z,99446.03
2022-12-31T01:21:20.516Z,99438.63
2022-12-31T01:23:48.896Z,99433.97
2022-12-31T01:26:18.028Z,99400.63
2022-12-31T01:28:45.830Z,99409.13
2022-12-31T01:31:16.361Z,99389.28
2022-12-31T01:33:45.289Z,99392.66
2022-12-31T01:36:21.873Z,99385.81
2022-12-31T01:38:57.327Z,99377.28
2022-12-31T01:41:27.217Z,99357.38
2022-12-31T01:43:57.267Z,99349.63
2022-12-31T01:46:29.318Z,99317.16
2022-12-31T01:49:01.493Z,99326.38
2022-12-31T01:51:32.228Z,99312.59
2022-12-31T01:54:03.177Z,99303.09
2022-12-31T01:56:31.200Z,99299.22
2022-12-31T01:58:59.870Z,99296.00
2022-12-31T02:01:30.489Z,99296.91
2022-12-31T02:03:59.057Z,99254.75
2022-12-31T02:06:33.302Z,99249.22
2022-12-31T02:09:02.745Z,99264.19
2022-12-31T02:11:33.027Z,99253.63
2022-12-31T02:14:05.077Z,99245.91
2022-12-31T02:16:41.381Z,99201.22
2022-12-31T02:19:32.124Z,99202.75
2022-12-31T02:22:05.846Z,99192.56
2022-12-31T02:24:49.506Z,99200.19
2022-12-31T02:27:26.138Z,99199.97
2022-12-31T02:30:07.722Z,99201.69
2022-12-31T02:33:07.801Z,99200.19
2022-12-31T02:35:44.885Z,99192.50
2022-12-31T02:38:19.083Z,99161.25
2022-12-31T02:40:48.084Z,99136.22
2022-12-31T02:43:15.884Z,99134.88
2022-12-31T02:45:48.749Z,99129.00
2022-12-31T02:48:33.045Z,99109.97
2022-12-31T02:51:13.332Z,99101.03
2022-12-31T02:53:57.109Z,99107.13
2022-12-31T02:56:31.176Z,99099.22
2022-12-31T02:59:22.381Z,99119.06
2022-12-31T03:02:13.799Z,99132.00
2022-12-31T03:04:42.601Z,99126.88
2022-12-31T03:07:13.862Z,99115.13
2022-12-31T03:09:41.918Z,99118.28
2022-12-31T03:12:29.366Z,99104.72
2022-12-31T03:14:57.625Z,99098.00
2022-12-31T03:17:26.785Z,99089.47
2022-12-31T03:20:12.146Z,99061.59
2022-12-31T03:22:43.498Z,99070.81
2022-12-31T03:25:32.545Z,99058.72
2022-12-31T03:28:01.254Z,99056.16
2022-12-31T03:30:29.608Z,99064.75
2022-12-31T03:32:59.208Z,99019.25
2022-12-31T03:35:29.513Z,99040.63
2022-12-31T03:37:57.817Z,99038.00
2022-12-31T03:40:27.600Z,99032.44
2022-12-31T03:42:55.522Z,99021.09
2022-12-31T03:45:23.332Z,99015.81
2022-12-31T03:47:51.363Z,99001.69
2022-12-31T03:50:21.442Z,98994.13
2022-12-31T03:52:49.217Z,98986.13
2022-12-31T03:55:16.980Z,98982.28
2022-12-31T03:57:44.873Z,98981.34
2022-12-31T04:00:15.785Z,98975.31
2022-12-31T04:02:43.647Z,98987.06
2022-12-31T04:05:11.874Z,98973.53
2022-12-31T04:07:41.335Z,98978.47
2022-12-31T04:10:11.501Z,98971.50
2022-12-31T04:12:40.112Z,98968.72
2022-12-31T04:15:09.531Z,98974.53
2022-12-31T04:17:37.337Z,98959.56
2022-12-31T04:20:05.774Z,98961.84
2022-12-31T04:22:33.641Z,98955.31
2022-12-31T04:25:03.135Z,98944.56
2022-12-31T04:27:31.312Z,98945.88
2022-12-31T04:29:59.006Z,98952.53
2022-12-31T04:32:26.865Z,98944.97
2022-12-31T04:34:54.671Z,98909.97
2022-12-31T04:37:22.726Z,98944.47
2022-12-31T04:39:50.425Z,98921.59
2022-12-31T04:42:19.505Z,98924.22
2022-12-31T04:44:47.306Z,98905.53
2022-12-31T04:47:18.737Z,98907.28
2022-12-31T04:49:51.174Z,98929.28
2022-12-31T04:52:18.970Z,98929.34
2022-12-31T04:54:46.694Z,98906.50
2022-12-31T04:57:14.611Z,98904.47
2022-12-31T04:59:43.860Z,98925.91
2022-12-31T05:02:11.764Z,98910.22
2022-12-31T05:04:39.700Z,98905.28
2022-12-31T05:07:07.414Z,98905.09
2022-12-31T05:09:35.132Z,98895.91
2022-12-31T05:12:03.010Z,98910.56
2022-12-31T05:14:30.749Z,98900.16
2022-12-31T05:17:01.158Z,98884.09
2022-12-31T05:19:28.869Z,98872.03
2022-12-31T05:22:10.501Z,98857.78
2022-12-31T05:24:38.414Z,98880.78
2022-12-31T05:27:06.227Z,98884.34
2022-12-31T05:29:34.018Z,98883.84
2022-12-31T05:32:03.291Z,98885.34
2022-12-31T05:34:31.043Z,98890.03
2022-12-31T05:36:58.754Z,98887.66
2022-12-31T05:39:26.562Z,98895.34
2022-12-31T05:41:54.297Z,98886.03
2022-12-31T05:44:22.001Z,98906.69
2022-12-31T05:46:49.864Z,98898.66
2022-12-31T05:49:18.918Z,98905.03
2022-12-31T05:51:46.662Z,98909.75
2022-12-31T05:54:14.483Z,98917.19
2022-12-31T05:56:42.193Z,98889.66
2022-12-31T05:59:09.982Z,98920.09
2022-12-31T06:01:37.864Z,98918.69
2022-12-31T06:04:06.047Z,98914.88
2022-12-31T06:06:35.418Z,98921.25
2022-12-31T06:09:03.331Z,98923.72
2022-12-31T06:11:31.283Z,98924.78
2022-12-31T06:13:59.307Z,98933.97
2022-12-31T06:16:28.100Z,98947.53
2022-12-31T06:18:56.317Z,98919.75
2022-12-31T06:21:24.205Z,98922.16
2022-12-31T06:23:53.437Z,98937.63
2022-12-31T06:26:21.447Z,98944.47
2022-12-31T06:28:49.230Z,98942.75
2022-12-31T06:31:17.177Z,98937.63
2022-12-31T06:33:46.909Z,98950.00
2022-12-31T06:36:16.900Z,98959.72
2022-12-31T06:38:45.267Z,98961.72
2022-12-31T06:41:16.738Z,98970.47
2022-12-31T06:43:44.711Z,98944.91
2022-12-31T06:46:14.558Z,98967.09
2022-12-31T06:48:44.698Z,98966.81
2022-12-31T06:51:17.302Z,98968.06
2022-12-31T06:53:45.922Z,98955.06
2022-12-31T06:56:18.569Z,98965.75
2022-12-31T06:58:47.236Z,98986.03
2022-12-31T07:01:32.883Z,98985.69
2022-12-31T07:04:14.150Z,98986.13
2022-12-31T07:06:49.879Z,98994.88
2022-12-31T07:09:27.271Z,99007.28
2022-12-31T07:12:04.944Z,99011.94
2022-12-31T07:14:37.111Z,99014.94
2022-12-31T07:17:21.673Z,99014.94
2022-12-31T07:19:58.008Z,99016.00
2022-12-31T07:22:26.619Z,99007.31
2022-12-31T07:24:55.138Z,99014.25
2022-12-31T07:27:37.733Z,99015.94
2022-12-31T07:30:11.077Z,99015.72
2022-12-31T07:32:57.537Z,99009.13
2022-12-31T07:35:35.447Z,99012.75
2022-12-31T07:38:09.015Z,99021.22
2022-12-31T07:40:51.003Z,99005.81
2022-12-31T07:43:35.581Z,99001.28
2022-12-31T07:46:12.799Z,99017.84
2022-12-31T07:48:41.114Z,99007.91
2022-12-31T07:51:11.757Z,99028.00
2022-12-31T07:53:39.546Z,99027.75
2022-12-31T07:56:09.952Z,99039.84
2022-12-31T07:58:48.976Z,99046.31
2022-12-31T08:01:20.776Z,99046.38
2022-12-31T08:03:56.403Z,99046.38
2022-12-31T08:06:34.839Z,99044.31
2022-12-31T08:09:08.197Z,99047.28
2022-12-31T08:11:43.237Z,99033.16
2022-12-31T08:14:14.650Z,99038.44
2022-12-31T08:16:43.087Z,99034.31
2022-12-31T08:19:23.573Z,99043.75
2022-12-31T08:21:55.462Z,99055.47
2022-12-31T08:24:30.031Z,99063.28
2022-12-31T08:27:06.373Z,99058.47
2022-12-31T08:29:43.208Z,99059.88
2022-12-31T08:32:16.586Z,99065.44
2022-12-31T08:34:55.776Z,99073.72
2022-12-31T08:37:32.103Z,99054.00
2022-12-31T08:40:14.129Z,99074.59
2022-12-31T08:42:50.467Z,99077.59
2022-12-31T08:45:29.216Z,99084.22
2022-12-31T08:48:02.471Z,99075.03
2022-12-31T08:50:31.115Z,99079.16
2022-12-31T08:52:59.694Z,99061.78
2022-12-31T08:55:28.029Z,99085.72
2022-12-31T08:58:09.394Z,99072.06
2022-12-31T09:00:39.768Z,99087.97
2022-12-31T09:03:22.222Z,99101.28
2022-12-31T09:05:58.706Z,99087.38
2022-12-31T09:08:34.134Z,99070.94
2022-12-31T09:11:08.759Z,99106.31
2022-12-31T09:13:49.342Z,99124.22
2022-12-31T09:16:26.123Z,99114.25
2022-12-31T09:18:54.078Z,99066.56
2022-12-31T09:21:22.160Z,99121.16
2022-12-31T09:23:50.303Z,99123.81
2022-12-31T09:26:36.297Z,99131.34
2022-12-31T09:29:13.827Z,99117.63
2022-12-31T09:31:52.543Z,99111.22
2022-12-31T09:34:26.015Z,99132.34
2022-12-31T09:36:58.409Z,99135.63
2022-12-31T09:39:38.296Z,99138.28
2022-12-31T09:42:39.055Z,99148.19
2022-12-31T09:45:43.563Z,99147.38
2022-12-31T09:48:50.855Z,99128.09
2022-12-31T09:51:33.024Z,99141.53
2022-12-31T09:54:26.520Z,99151.81
2022-12-31T09:57:27.839Z,99147.25
2022-12-31T10:00:01.762Z,99154.41
2022-12-31T10:02:53.934Z,99141.88
2022-12-31T10:05:49.432Z,99110.97
2022-12-31T10:08:30.283Z,99103.53
2022-12-31T10:11:00.622Z,99130.72
2022-12-31T10:13:44.191Z,99123.00
2022-12-31T10:16:25.766Z,99109.75
2022-12-31T10:19:19.258Z,99126.56
2022-12-31T10:22:03.294Z,99121.91
2022-12-31T10:24:48.066Z,99132.19
2022-12-31T10:27:29.619Z,99102.53
2022-12-31T10:30:03.471Z,99092.50
2022-12-31T10:32:43.261Z,99117.78
2022-12-31T10:35:27.922Z,99118.84
2022-12-31T10:38:13.780Z,99127.06
2022-12-31T10:41:11.153Z,99123.22
2022-12-31T10:44:25.532Z,99126.72
2022-12-31T10:47:26.440Z,99099.53
2022-12-31T10:50:13.582Z,99129.22
2022-12-31T10:53:32.902Z,99122.59
2022-12-31T10:56:38.917Z,99110.13
2022-12-31T10:59:34.725Z,99127.38
2022-12-31T11:02:21.517Z,99119.59
2022-12-31T11:05:22.516Z,99122.63
2022-12-31T11:08:07.475Z,99114.94
2022-12-31T11:10:58.690Z,99124.38
2022-12-31T11:13:52.107Z,99118.66
2022-12-31T11:16:46.964Z,99112.09
2022-12-31T11:19:22.657Z,99102.03
2022-12-31T11:22:21.375Z,99105.81
2022-12-31T11:25:14.182Z,99096.38
2022-12-31T11:27:55.675Z,99112.88
2022-12-31T11:30:34.034Z,99112.13
2022-12-31T11:33:20.305Z,99115.47
2022-12-31T11:36:10.302Z,99110.66
2022-12-31T11:38:43.979Z,99103.03
2022-12-31T11:41:17.542Z,99108.50
2022-12-31T11:43:55.784Z,99099.91
2022-12-31T11:46:41.442Z,99106.50
2022-12-31T11:49:20.697Z,99105.34
2022-12-31T11:52:18.246Z,99069.91
2022-12-31T11:55:04.520Z,99101.47
2022-12-31T11:57:35.916Z,99105.09
2022-12-31T12:00:15.167Z,99105.81
2022-12-31T12:02:46.834Z,99098.19
2022-12-31T12:05:17.746Z,99103.75
2022-12-31T12:07:45.915Z,99094.88
2022-12-31T12:10:24.154Z,99088.72
2022-12-31T12:12:53.313Z,99067.84
2022-12-31T12:15:24.865Z,99064.28
2022-12-31T12:17:57.627Z,99071.75
2022-12-31T12:20:31.412Z,99063.59
2022-12-31T12:23:02.384Z,99056.59
2022-12-31T12:25:38.917Z,99071.81
2022-12-31T12:28:19.745Z,99071.25
2022-12-31T12:30:53.806Z,99063.72
2022-12-31T12:33:23.577Z,99051.34
2022-12-31T12:35:51.819Z,99062.66
2022-12-31T12:38:21.925Z,99063.38
2022-12-31T12:40:58.445Z,99066.59
2022-12-31T12:43:28.233Z,99072.72
2022-12-31T12:46:00.253Z,99074.63
2022-12-31T12:48:36.459Z,99068.00
2022-12-31T12:51:21.940Z,99059.78
2022-12-31T12:53:58.872Z,99062.66
2022-12-31T12:56:36.644Z,99064.88
2022-12-31T12:59:27.780Z,99071.63
2022-12-31T13:02:05.531Z,99068.75
2022-12-31T13:04:52.573Z,99057.94
2022-12-31T13:07:32.973Z,99052.34
2022-12-31T13:10:24.157Z,99053.91
2022-12-31T13:15:55.118Z,99025.19
2022-12-31T13:18:37.038Z,99038.63
2022-12-31T13:21:19.768Z,99035.84
2022-12-31T13:23:53.718Z,99030.97
2022-12-31T13:26:28.968Z,99037.50
2022-12-31T13:28:59.624Z,99045.47
2022-12-31T13:31:31.570Z,99048.06
2022-12-31T13:34:05.523Z,99042.91
2022-12-31T13:36:38.930Z,99033.97
2022-12-31T13:39:13.499Z,99037.34
2022-12-31T13:41:47.763Z,99037.25
2022-12-31T13:44:20.346Z,99032.91
2022-12-31T13:46:52.493Z,99044.69
2022-12-31T13:49:26.152Z,99035.75
2022-12-31T13:52:02.621Z,99031.50
2022-12-31T13:54:39.267Z,99053.03
2022-12-31T13:57:16.415Z,99048.16
2022-12-31T13:59:49.538Z,99053.38
2022-12-31T14:02:33.294Z,99046.63
2022-12-31T14:05:07.642Z,99049.09
2022-12-31T14:07:45.817Z,99039.38
2022-12-31T14:10:14.912Z,99041.00
2022-12-31T14:12:54.074Z,99048.94
2022-12-31T14:15:26.302Z,99039.44
2022-12-31T14:18:04.264Z,99041.16
2022-12-31T14:20:41.140Z,99049.75
2022-12-31T14:23:17.947Z,99034.31
2022-12-31T14:25:52.030Z,99034.22
2022-12-31T14:28:26.979Z,99029.66
2022-12-31T14:31:01.180Z,99035.03
2022-12-31T14:33:52.750Z,99032.13
2022-12-31T14:36:35.982Z,99034.03
2022-12-31T14:39:26.166Z,99030.56
2022-12-31T14:42:05.231Z,99028.66
2022-12-31T14:44:47.470Z,99027.22
2022-12-31T14:47:28.059Z,99020.09
2022-12-31T14:50:05.274Z,99032.81
2022-12-31T14:52:34.660Z,99012.19
2022-12-31T14:55:22.818Z,99035.59
2022-12-31T15:00:41.022Z,99028.16
2022-12-31T15:03:26.067Z,99043.72
2022-12-31T15:05:58.533Z,99030.78
2022-12-31T15:08:48.051Z,99038.00
2022-12-31T15:11:48.527Z,99047.63
2022-12-31T15:14:37.851Z,99056.41
2022-12-31T15:17:17.214Z,99059.34
2022-12-31T15:20:16.981Z,99066.25
2022-12-31T15:22:47.608Z,99061.19
2022-12-31T15:25:25.346Z,99069.38
2022-12-31T15:27:55.282Z,99069.81
2022-12-31T15:30:39.869Z,99073.22
2022-12-31T15:33:10.906Z,99075.69
2022-12-31T15:35:47.994Z,99080.13
2022-12-31T15:38:31.574Z,99075.88
2022-12-31T15:41:00.135Z,99077.69
2022-12-31T15:43:40.880Z,99070.16
2022-12-31T15:46:17.354Z,99068.22
2022-12-31T15:48:52.133Z,99042.59
2022-12-31T15:51:23.699Z,99076.03
2022-12-31T15:53:54.418Z,99066.91
2022-12-31T15:56:31.238Z,99046.22
2022-12-31T15:59:03.622Z,99080.19
2022-12-31T16:01:33.878Z,99051.50
2022-12-31T16:04:05.725Z,99080.44
2022-12-31T16:06:37.780Z,99075.78
2022-12-31T16:09:09.027Z,99085.56
2022-12-31T16:11:38.534Z,99089.09
2022-12-31T16:14:07.813Z,99074.22
2022-12-31T16:16:36.064Z,99083.38
2022-12-31T16:19:03.977Z,99060.13
2022-12-31T16:21:34.389Z,99095.25
2022-12-31T16:24:03.238Z,99087.78
2022-12-31T16:26:35.064Z,99065.66
2022-12-31T16:29:04.613Z,99096.06
2022-12-31T16:31:34.158Z,99098.63
2022-12-31T16:34:07.144Z,99111.78
2022-12-31T16:36:35.465Z,99119.44
2022-12-31T16:39:25.487Z,99108.00
2022-12-31T16:42:00.418Z,99107.31
2022-12-31T16:44:30.141Z,99115.69
2022-12-31T16:47:01.579Z,99117.44
2022-12-31T16:49:32.571Z,99110.56
2022-12-31T16:52:03.786Z,99111.84
2022-12-31T16:54:35.330Z,99114.53
2022-12-31T16:57:04.701Z,99123.41
2022-12-31T16:59:36.213Z,99103.19
2022-12-31T17:02:12.461Z,99112.63
2022-12-31T17:04:46.043Z,99132.50
2022-12-31T17:07:39.997Z,99133.00
2022-12-31T17:10:19.406Z,99138.63
2022-12-31T17:15:42.258Z,99096.91
2022-12-31T17:18:18.549Z,99103.25
2022-12-31T17:20:47.010Z,99140.47
2022-12-31T17:23:24.677Z,99150.25
2022-12-31T17:25:59.918Z,99145.28
2022-12-31T17:28:33.213Z,99158.31
2022-12-31T17:31:22.094Z,99151.19
2022-12-31T17:33:54.941Z,99138.16
2022-12-31T17:36:24.568Z,99151.50
2022-12-31T17:38:52.491Z,99159.53
2022-12-31T17:41:26.679Z,99167.31
2022-12-31T17:43:58.685Z,99168.66
2022-12-31T17:46:27.511Z,99179.00
2022-12-31T17:49:03.564Z,99175.38
2022-12-31T17:51:31.451Z,99176.00
2022-12-31T17:54:01.233Z,99173.13
2022-12-31T17:56:29.010Z,99176.94
2022-12-31T17:58:57.099Z,99175.28
2022-12-31T18:01:25.212Z,99165.91
2022-12-31T18:03:53.097Z,99165.19
2022-12-31T18:06:22.337Z,99175.72
2022-12-31T18:08:50.059Z,99179.94
2022-12-31T18:11:20.639Z,99168.66
2022-12-31T18:13:48.901Z,99161.38
2022-12-31T18:16:17.123Z,99180.31
2022-12-31T18:18:45.378Z,99183.19
2022-12-31T18:21:17.828Z,99163.44
2022-12-31T18:23:48.804Z,99179.44
2022-12-31T18:26:18.671Z,99185.97
2022-12-31T18:28:46.982Z,99178.25
2022-12-31T18:31:17.696Z,99207.94
2022-12-31T18:33:46.910Z,99189.72
2022-12-31T18:36:16.874Z,99217.41
2022-12-31T18:38:46.038Z,99223.75
2022-12-31T18:41:18.486Z,99216.28
2022-12-31T18:43:46.656Z,99218.84
2022-12-31T18:46:16.324Z,99232.13
2022-12-31T18:48:44.430Z,99245.13
2022-12-31T18:51:15.159Z,99231.56
2022-12-31T18:53:43.099Z,99215.56
2022-12-31T18:56:14.352Z,99231.06
2022-12-31T18:58:43.145Z,99235.13
2022-12-31T19:01:26.111Z,99241.56
2022-12-31T19:03:54.605Z,99254.44
2022-12-31T19:06:22.519Z,99244.81
2022-12-31T19:08:50.339Z,99257.16
2022-12-31T19:11:19.861Z,99270.53
2022-12-31T19:13:47.586Z,99262.94
2022-12-31T19:16:17.958Z,99259.56
2022-12-31T19:18:46.246Z,99270.50
2022-12-31T19:21:19.923Z,99280.00
2022-12-31T19:23:48.588Z,99281.13
2022-12-31T19:26:18.117Z,99288.44
2022-12-31T19:28:48.354Z,99296.00
2022-12-31T19:31:17.374Z,99300.63
2022-12-31T19:33:45.938Z,99310.97
2022-12-31T19:36:16.045Z,99310.88
2022-12-31T19:38:44.148Z,99317.81
2022-12-31T19:41:16.289Z,99327.09
2022-12-31T19:43:44.085Z,99314.41
2022-12-31T19:46:15.622Z,99323.28
2022-12-31T19:48:44.133Z,99322.47
2022-12-31T19:51:13.821Z,99342.81
2022-12-31T19:53:41.743Z,99344.59
2022-12-31T19:56:13.717Z,99343.13
2022-12-31T19:58:42.000Z,99339.25
2022-12-31T20:01:17.318Z,99351.50
2022-12-31T20:03:46.547Z,99334.63
2022-12-31T20:06:14.619Z,99350.81
2022-12-31T20:08:44.274Z,99354.78
2022-12-31T20:11:14.651Z,99351.00
2022-12-31T20:13:43.246Z,99355.75
2022-12-31T20:16:14.028Z,99361.97
2022-12-31T20:18:43.313Z,99338.88
2022-12-31T20:21:14.905Z,99374.53
2022-12-31T20:23:42.719Z,99382.84
2022-12-31T20:26:11.008Z,99398.50
2022-12-31T20:28:39.164Z,99409.25
2022-12-31T20:31:07.917Z,99407.72
2022-12-31T20:33:35.830Z,99412.91
2022-12-31T20:36:04.534Z,99411.66
2022-12-31T20:38:34.138Z,99422.13
2022-12-31T20:41:05.778Z,99440.06
2022-12-31T20:43:34.304Z,99440.16
2022-12-31T20:46:12.600Z,99440.41
2022-12-31T20:48:43.135Z,99449.31
2022-12-31T20:51:11.067Z,99457.78
2022-12-31T20:53:40.213Z,99464.31
2022-12-31T20:56:09.578Z,99467.66
2022-12-31T20:58:37.578Z,99458.97
2022-12-31T21:01:08.047Z,99457.03
2022-12-31T21:04:04.452Z,99473.75
2022-12-31T21:06:24.619Z,99466.88
2022-12-31T21:08:55.116Z,99471.19
2022-12-31T21:11:40.019Z,99478.56
2022-12-31T21:14:08.356Z,99479.00
2022-12-31T21:16:36.302Z,99485.84
2022-12-31T21:19:04.501Z,99474.44
2022-12-31T21:21:32.441Z,99478.09
2022-12-31T21:24:01.560Z,99478.53
2022-12-31T21:26:30.553Z,99474.72
2022-12-31T21:28:58.538Z,99477.38
2022-12-31T21:31:26.347Z,99481.75
2022-12-31T21:33:54.165Z,99458.06
2022-12-31T21:36:22.133Z,99472.41
2022-12-31T21:38:49.924Z,99470.22
2022-12-31T21:41:36.317Z,99484.94
2022-12-31T21:44:04.794Z,99489.84
2022-12-31T21:46:32.839Z,99495.56
2022-12-31T21:49:01.779Z,99494.66
2022-12-31T21:51:30.261Z,99474.44
2022-12-31T21:53:58.382Z,99509.06
2022-12-31T21:56:26.588Z,99501.72
2022-12-31T21:59:15.641Z,99497.78
2022-12-31T22:02:01.105Z,99493.81
2022-12-31T22:07:17.723Z,99510.75
2022-12-31T22:09:45.649Z,99515.59
2022-12-31T22:12:14.726Z,99513.81
2022-12-31T22:15:15.449Z,99517.44
2022-12-31T22:17:30.325Z,99521.94
2022-12-31T22:20:25.859Z,99524.28
2022-12-31T22:22:45.870Z,99532.66
2022-12-31T22:25:13.721Z,99538.91
2022-12-31T22:27:53.071Z,99543.00
2022-12-31T22:30:30.963Z,99549.03
2022-12-31T22:32:59.020Z,99556.50
2022-12-31T22:35:26.908Z,99543.97
2022-12-31T22:37:58.481Z,99562.59
2022-12-31T22:40:29.367Z,99553.53
2022-12-31T22:42:58.595Z,99573.69
2022-12-31T22:45:26.346Z,99565.25
2022-12-31T22:47:54.197Z,99582.06
2022-12-31T22:50:22.165Z,99591.75
2022-12-31T22:52:49.865Z,99597.00
2022-12-31T22:55:17.827Z,99601.13
2022-12-31T22:57:45.738Z,99611.28
2022-12-31T23:00:15.802Z,99610.91
2022-12-31T23:02:43.660Z,99600.31
2022-12-31T23:05:16.160Z,99628.19
2022-12-31T23:07:44.376Z,99600.25
2022-12-31T23:10:29.780Z,99641.16
2022-12-31T23:12:57.512Z,99641.97
2022-12-31T23:15:44.200Z,99651.25
2022-12-31T23:18:29.442Z,99651.97
2022-12-31T23:21:14.598Z,99658.25
2022-12-31T23:23:42.352Z,99651.34
2022-12-31T23:26:10.202Z,99660.91
2022-12-31T23:28:37.913Z,99664.78
2022-12-31T23:31:08.377Z,99641.88
2022-12-31T23:33:36.053Z,99651.94
2022-12-31T23:36:05.014Z,99666.13
2022-12-31T23:38:32.719Z,99649.13
2022-12-31T23:41:01.377Z,99641.91
2022-12-31T23:43:29.425Z,99669.94
2022-12-31T23:45:57.187Z,99663.09
2022-12-31T23:48:26.380Z,99683.53
2022-12-31T23:50:54.495Z,99696.97
2022-12-31T23:53:22.902Z,99695.16
2022-12-31T23:55:50.955Z,99696.66
2022-12-31T23:58:18.785Z,99689.75
